sensor_id;sensor_type;location;lat;lon;timestamp;pressure;altitude;pressure_sealevel;temperature;humidity
79453;BME280;68899;52.116;5.404;2024-03-06T00:01:16;101855.81;;;6.33;89.13
79453;BME280;68899;52.116;5.404;2024-03-06T00:03:43;101860.19;;;6.32;88.89
79453;BME280;68899;52.116;5.404;2024-03-06T00:06:10;101866.41;;;6.28;88.80
79453;BME280;68899;52.116;5.404;2024-03-06T00:08:36;101869.94;;;6.27;88.31
79453;BME280;68899;52.116;5.404;2024-03-06T00:11:03;101870.91;;;6.23;88.20
79453;BME280;68899;52.116;5.404;2024-03-06T00:13:31;101875.44;;;6.16;88.33
79453;BME280;68899;52.116;5.404;2024-03-06T00:15:57;101881.75;;;6.09;88.18
79453;BME280;68899;52.116;5.404;2024-03-06T00:18:24;101887.06;;;6.05;88.41
79453;BME280;68899;52.116;5.404;2024-03-06T00:20:50;101888.00;;;6.02;88.01
79453;BME280;68899;52.116;5.404;2024-03-06T00:23:17;101888.06;;;5.99;88.65
79453;BME280;68899;52.116;5.404;2024-03-06T00:25:43;101891.59;;;5.98;88.04
79453;BME280;68899;52.116;5.404;2024-03-06T00:28:10;101892.44;;;5.99;88.35
79453;BME280;68899;52.116;5.404;2024-03-06T00:30:37;101886.34;;;5.98;87.99
79453;BME280;68899;52.116;5.404;2024-03-06T00:33:04;101886.44;;;5.95;88.11
79453;BME280;68899;52.116;5.404;2024-03-06T00:35:31;101889.03;;;5.97;87.96
79453;BME280;68899;52.116;5.404;2024-03-06T00:37:57;101891.72;;;5.93;88.09
79453;BME280;68899;52.116;5.404;2024-03-06T00:40:29;101893.53;;;5.88;87.75
79453;BME280;68899;52.116;5.404;2024-03-06T00:42:58;101900.56;;;5.86;88.10
79453;BME280;68899;52.116;5.404;2024-03-06T00:45:25;101904.06;;;5.85;87.96
79453;BME280;68899;52.116;5.404;2024-03-06T00:47:52;101901.47;;;5.85;88.12
79453;BME280;68899;52.116;5.404;2024-03-06T00:50:18;101898.81;;;5.87;88.10
79453;BME280;68899;52.116;5.404;2024-03-06T00:52:47;101906.56;;;5.91;88.52
79453;BME280;68899;52.116;5.404;2024-03-06T00:55:15;101898.75;;;5.88;87.86
79453;BME280;68899;52.116;5.404;2024-03-06T00:57:42;101907.53;;;5.86;88.17
79453;BME280;68899;52.116;5.404;2024-03-06T01:00:09;101906.59;;;5.88;88.39
79453;BME280;68899;52.116;5.404;2024-03-06T01:02:39;101910.06;;;5.90;88.19
79453;BME280;68899;52.116;5.404;2024-03-06T01:05:06;101910.06;;;5.89;88.01
79453;BME280;68899;52.116;5.404;2024-03-06T01:07:33;101915.38;;;5.86;88.01
79453;BME280;68899;52.116;5.404;2024-03-06T01:10:01;101918.94;;;5.83;88.18
79453;BME280;68899;52.116;5.404;2024-03-06T01:12:27;101917.22;;;5.82;88.07
79453;BME280;68899;52.116;5.404;2024-03-06T01:14:55;101924.16;;;5.83;88.49
79453;BME280;68899;52.116;5.404;2024-03-06T01:17:22;101917.19;;;5.84;88.34
79453;BME280;68899;52.116;5.404;2024-03-06T01:19:49;101921.53;;;5.83;88.32
79453;BME280;68899;52.116;5.404;2024-03-06T01:22:15;101922.44;;;5.82;87.81
79453;BME280;68899;52.116;5.404;2024-03-06T01:24:43;101933.75;;;5.81;87.93
79453;BME280;68899;52.116;5.404;2024-03-06T01:27:10;101925.06;;;5.81;88.31
79453;BME280;68899;52.116;5.404;2024-03-06T01:29:37;101928.53;;;5.81;88.53
79453;BME280;68899;52.116;5.404;2024-03-06T01:32:04;101931.19;;;5.80;88.52
79453;BME280;68899;52.116;5.404;2024-03-06T01:34:31;101931.19;;;5.80;88.29
79453;BME280;68899;52.116;5.404;2024-03-06T01:36:58;101934.63;;;5.82;88.31
79453;BME280;68899;52.116;5.404;2024-03-06T01:39:24;101938.94;;;5.84;88.48
79453;BME280;68899;52.116;5.404;2024-03-06T01:41:51;101943.34;;;5.82;88.45
79453;BME280;68899;52.116;5.404;2024-03-06T01:44:18;101942.44;;;5.82;88.46
79453;BME280;68899;52.116;5.404;2024-03-06T01:46:45;101944.19;;;5.83;88.00
79453;BME280;68899;52.116;5.404;2024-03-06T01:49:17;101940.81;;;5.78;87.92
79453;BME280;68899;52.116;5.404;2024-03-06T01:51:58;101929.63;;;5.73;87.77
79453;BME280;68899;52.116;5.404;2024-03-06T01:54:26;101933.13;;;5.72;88.10
79453;BME280;68899;52.116;5.404;2024-03-06T01:56:54;101933.13;;;5.72;87.49
79453;BME280;68899;52.116;5.404;2024-03-06T01:59:23;101935.00;;;5.66;87.02
79453;BME280;68899;52.116;5.404;2024-03-06T02:02:02;101933.44;;;5.59;87.46
79453;BME280;68899;52.116;5.404;2024-03-06T02:04:31;101935.28;;;5.54;86.99
79453;BME280;68899;52.116;5.404;2024-03-06T02:06:57;101945.75;;;5.53;87.15
79453;BME280;68899;52.116;5.404;2024-03-06T02:09:24;101949.38;;;5.46;86.52
79453;BME280;68899;52.116;5.404;2024-03-06T02:11:51;101944.34;;;5.38;86.49
79453;BME280;68899;52.116;5.404;2024-03-06T02:14:17;101943.56;;;5.34;86.22
79453;BME280;68899;52.116;5.404;2024-03-06T02:16:44;101952.31;;;5.32;86.38
79453;BME280;68899;52.116;5.404;2024-03-06T02:19:10;101953.31;;;5.26;86.14
79453;BME280;68899;52.116;5.404;2024-03-06T02:21:37;101949.06;;;5.22;86.21
79453;BME280;68899;52.116;5.404;2024-03-06T02:24:04;101949.06;;;5.22;86.25
79453;BME280;68899;52.116;5.404;2024-03-06T02:26:30;101943.03;;;5.19;85.93
79453;BME280;68899;52.116;5.404;2024-03-06T02:28:57;101946.53;;;5.18;86.53
79453;BME280;68899;52.116;5.404;2024-03-06T02:31:24;101953.53;;;5.16;86.58
79453;BME280;68899;52.116;5.404;2024-03-06T02:33:51;101950.97;;;5.14;86.24
79453;BME280;68899;52.116;5.404;2024-03-06T02:36:17;101944.94;;;5.10;86.19
79453;BME280;68899;52.116;5.404;2024-03-06T02:38:45;101958.81;;;5.14;85.88
79453;BME280;68899;52.116;5.404;2024-03-06T02:41:12;101964.13;;;5.08;85.81
79453;BME280;68899;52.116;5.404;2024-03-06T02:43:42;101964.25;;;5.02;85.88
79453;BME280;68899;52.116;5.404;2024-03-06T02:46:09;101960.81;;;5.00;85.97
79453;BME280;68899;52.116;5.404;2024-03-06T02:48:36;101963.47;;;4.98;85.96
79453;BME280;68899;52.116;5.404;2024-03-06T02:51:02;101967.81;;;4.98;86.07
79453;BME280;68899;52.116;5.404;2024-03-06T02:53:29;101962.66;;;4.96;85.86
79453;BME280;68899;52.116;5.404;2024-03-06T02:55:55;101961.88;;;4.91;85.59
79453;BME280;68899;52.116;5.404;2024-03-06T02:58:22;101955.03;;;4.86;86.02
79453;BME280;68899;52.116;5.404;2024-03-06T03:00:48;101954.16;;;4.85;85.95
79453;BME280;68899;52.116;5.404;2024-03-06T03:03:15;101958.47;;;4.86;86.12
79453;BME280;68899;52.116;5.404;2024-03-06T03:05:42;101962.09;;;4.80;85.98
79453;BME280;68899;52.116;5.404;2024-03-06T03:08:09;101954.31;;;4.79;85.93
79453;BME280;68899;52.116;5.404;2024-03-06T03:10:35;101961.28;;;4.77;86.16
79453;BME280;68899;52.116;5.404;2024-03-06T03:13:02;101959.56;;;4.76;86.16
79453;BME280;68899;52.116;5.404;2024-03-06T03:15:28;101963.84;;;4.80;86.02
79453;BME280;68899;52.116;5.404;2024-03-06T03:17:55;101963.78;;;4.83;86.17
79453;BME280;68899;52.116;5.404;2024-03-06T03:20:22;101967.28;;;4.82;86.12
79453;BME280;68899;52.116;5.404;2024-03-06T03:22:48;101957.72;;;4.81;85.88
79453;BME280;68899;52.116;5.404;2024-03-06T03:25:15;101966.50;;;4.77;85.93
79453;BME280;68899;52.116;5.404;2024-03-06T03:27:42;101966.50;;;4.77;85.76
79453;BME280;68899;52.116;5.404;2024-03-06T03:30:10;101974.34;;;4.75;85.77
79453;BME280;68899;52.116;5.404;2024-03-06T03:32:37;101970.94;;;4.72;85.37
79453;BME280;68899;52.116;5.404;2024-03-06T03:35:05;101969.31;;;4.66;85.74
79453;BME280;68899;52.116;5.404;2024-03-06T03:37:32;101972.84;;;4.64;85.64
79453;BME280;68899;52.116;5.404;2024-03-06T03:39:59;101968.53;;;4.63;85.44
79453;BME280;68899;52.116;5.404;2024-03-06T03:42:26;101975.63;;;4.54;84.65
79453;BME280;68899;52.116;5.404;2024-03-06T03:44:52;101974.94;;;4.45;85.02
79453;BME280;68899;52.116;5.404;2024-03-06T03:47:19;101974.19;;;4.38;85.26
79453;BME280;68899;52.116;5.404;2024-03-06T03:49:45;101978.56;;;4.36;85.08
79453;BME280;68899;52.116;5.404;2024-03-06T03:52:24;101986.41;;;4.35;85.27
79453;BME280;68899;52.116;5.404;2024-03-06T03:54:51;101984.66;;;4.34;85.02
79453;BME280;68899;52.116;5.404;2024-03-06T03:57:17;101980.38;;;4.31;85.12
79453;BME280;68899;52.116;5.404;2024-03-06T03:59:44;101982.13;;;4.31;84.80
79453;BME280;68899;52.116;5.404;2024-03-06T04:02:11;101987.44;;;4.26;84.84
79453;BME280;68899;52.116;5.404;2024-03-06T04:04:38;101989.19;;;4.22;84.85
79453;BME280;68899;52.116;5.404;2024-03-06T04:07:04;101997.91;;;4.21;85.04
79453;BME280;68899;52.116;5.404;2024-03-06T04:09:32;101984.94;;;4.18;84.82
79453;BME280;68899;52.116;5.404;2024-03-06T04:12:03;101994.41;;;4.22;84.94
79453;BME280;68899;52.116;5.404;2024-03-06T04:14:30;101989.19;;;4.22;85.21
79453;BME280;68899;52.116;5.404;2024-03-06T04:16:56;101985.78;;;4.20;84.91
79453;BME280;68899;52.116;5.404;2024-03-06T04:19:23;101990.16;;;4.17;84.71
79453;BME280;68899;52.116;5.404;2024-03-06T04:21:49;101991.06;;;4.14;84.77
79453;BME280;68899;52.116;5.404;2024-03-06T04:24:19;101994.59;;;4.12;84.86
79453;BME280;68899;52.116;5.404;2024-03-06T04:26:45;101991.16;;;4.08;84.85
79453;BME280;68899;52.116;5.404;2024-03-06T04:29:15;101992.94;;;4.06;85.03
79453;BME280;68899;52.116;5.404;2024-03-06T04:31:43;101996.47;;;4.04;85.29
79453;BME280;68899;52.116;5.404;2024-03-06T04:34:09;101994.75;;;4.03;84.72
79453;BME280;68899;52.116;5.404;2024-03-06T04:36:36;101990.47;;;4.00;85.24
79453;BME280;68899;52.116;5.404;2024-03-06T04:39:02;102000.88;;;4.00;85.14
79453;BME280;68899;52.116;5.404;2024-03-06T04:41:33;102003.47;;;3.98;85.25
79453;BME280;68899;52.116;5.404;2024-03-06T04:44:00;102007.00;;;3.96;85.21
79453;BME280;68899;52.116;5.404;2024-03-06T04:46:27;102014.75;;;3.99;85.23
79453;BME280;68899;52.116;5.404;2024-03-06T04:48:54;102013.91;;;3.97;85.22
79453;BME280;68899;52.116;5.404;2024-03-06T04:51:20;102016.53;;;3.97;84.95
79453;BME280;68899;52.116;5.404;2024-03-06T04:53:48;102025.22;;;3.96;84.54
79453;BME280;68899;52.116;5.404;2024-03-06T04:56:14;102026.13;;;3.93;84.74
79453;BME280;68899;52.116;5.404;2024-03-06T04:58:43;102027.91;;;3.90;84.78
79453;BME280;68899;52.116;5.404;2024-03-06T05:01:11;102021.84;;;3.91;84.58
79453;BME280;68899;52.116;5.404;2024-03-06T05:03:39;102027.03;;;3.89;84.67
79453;BME280;68899;52.116;5.404;2024-03-06T05:06:23;102030.63;;;3.84;84.61
79453;BME280;68899;52.116;5.404;2024-03-06T05:09:07;102029.75;;;3.82;84.96
79453;BME280;68899;52.116;5.404;2024-03-06T05:11:55;102032.38;;;3.80;84.92
79453;BME280;68899;52.116;5.404;2024-03-06T05:14:39;102026.34;;;3.78;84.93
79453;BME280;68899;52.116;5.404;2024-03-06T05:17:23;102041.03;;;3.84;84.83
79453;BME280;68899;52.116;5.404;2024-03-06T05:20:07;102040.19;;;3.83;84.94
79453;BME280;68899;52.116;5.404;2024-03-06T05:22:51;102036.63;;;3.87;84.59
79453;BME280;68899;52.116;5.404;2024-03-06T05:25:35;102049.63;;;3.89;85.00
79453;BME280;68899;52.116;5.404;2024-03-06T05:28:19;102056.53;;;3.90;85.27
79453;BME280;68899;52.116;5.404;2024-03-06T05:31:15;102057.41;;;3.90;85.08
79453;BME280;68899;52.116;5.404;2024-03-06T05:34:00;102060.00;;;3.92;85.44
79453;BME280;68899;52.116;5.404;2024-03-06T05:36:44;102062.59;;;3.93;85.77
79453;BME280;68899;52.116;5.404;2024-03-06T05:39:28;102065.13;;;3.96;85.75
79453;BME280;68899;52.116;5.404;2024-03-06T05:42:13;102072.13;;;3.94;86.05
79453;BME280;68899;52.116;5.404;2024-03-06T05:44:57;102074.75;;;3.93;86.08
79453;BME280;68899;52.116;5.404;2024-03-06T05:47:48;102073.84;;;3.94;85.83
79453;BME280;68899;52.116;5.404;2024-03-06T05:50:33;102070.41;;;3.93;86.15
79453;BME280;68899;52.116;5.404;2024-03-06T05:53:17;102080.81;;;3.93;86.26
79453;BME280;68899;52.116;5.404;2024-03-06T05:56:01;102082.53;;;3.94;86.53
79453;BME280;68899;52.116;5.404;2024-03-06T05:58:45;102090.31;;;3.96;86.22
79453;BME280;68899;52.116;5.404;2024-03-06T06:01:15;102092.91;;;3.96;86.48
79453;BME280;68899;52.116;5.404;2024-03-06T06:03:42;102096.38;;;3.96;86.58
79453;BME280;68899;52.116;5.404;2024-03-06T06:06:08;102097.28;;;3.94;86.55
79453;BME280;68899;52.116;5.404;2024-03-06T06:08:35;102099.06;;;3.92;86.78
79453;BME280;68899;52.116;5.404;2024-03-06T06:11:02;102108.59;;;3.90;87.05
79453;BME280;68899;52.116;5.404;2024-03-06T06:13:31;102111.22;;;3.90;86.88
79453;BME280;68899;52.116;5.404;2024-03-06T06:15:58;102106.88;;;3.90;86.84
79453;BME280;68899;52.116;5.404;2024-03-06T06:18:25;102108.56;;;3.94;87.08
79453;BME280;68899;52.116;5.404;2024-03-06T06:20:51;102112.91;;;3.94;86.98
79453;BME280;68899;52.116;5.404;2024-03-06T06:23:18;102119.78;;;3.98;87.05
79453;BME280;68899;52.116;5.404;2024-03-06T06:25:44;102122.38;;;3.98;87.34
79453;BME280;68899;52.116;5.404;2024-03-06T06:28:12;102127.56;;;4.01;87.43
79453;BME280;68899;52.116;5.404;2024-03-06T06:30:39;102132.75;;;4.03;87.60
79453;BME280;68899;52.116;5.404;2024-03-06T06:33:05;102133.63;;;4.02;87.47
79453;BME280;68899;52.116;5.404;2024-03-06T06:35:32;102135.44;;;3.96;87.39
79453;BME280;68899;52.116;5.404;2024-03-06T06:38:01;102132.88;;;3.93;87.77
79453;BME280;68899;52.116;5.404;2024-03-06T06:40:28;102142.38;;;3.96;87.62
79453;BME280;68899;52.116;5.404;2024-03-06T06:42:54;102140.66;;;3.95;87.84
79453;BME280;68899;52.116;5.404;2024-03-06T06:45:21;102145.88;;;3.95;87.81
79453;BME280;68899;52.116;5.404;2024-03-06T06:47:49;102161.47;;;3.96;88.04
79453;BME280;68899;52.116;5.404;2024-03-06T06:50:16;102157.13;;;3.97;88.10
79453;BME280;68899;52.116;5.404;2024-03-06T06:52:43;102161.41;;;4.01;87.99
79453;BME280;68899;52.116;5.404;2024-03-06T06:55:09;102172.66;;;4.03;88.22
79453;BME280;68899;52.116;5.404;2024-03-06T06:57:38;102174.38;;;4.04;87.78
79453;BME280;68899;52.116;5.404;2024-03-06T07:00:06;102172.63;;;4.06;88.03
79453;BME280;68899;52.116;5.404;2024-03-06T07:02:38;102180.44;;;4.06;88.10
79453;BME280;68899;52.116;5.404;2024-03-06T07:05:09;102185.63;;;4.09;88.23
79453;BME280;68899;52.116;5.404;2024-03-06T07:07:36;102190.84;;;4.06;87.80
79453;BME280;68899;52.116;5.404;2024-03-06T07:10:03;102196.13;;;4.02;88.34
79453;BME280;68899;52.116;5.404;2024-03-06T07:12:30;102196.94;;;4.05;88.73
79453;BME280;68899;52.116;5.404;2024-03-06T07:14:58;102200.41;;;4.06;88.29
79453;BME280;68899;52.116;5.404;2024-03-06T07:17:25;102205.59;;;4.07;88.63
79453;BME280;68899;52.116;5.404;2024-03-06T07:19:52;102209.88;;;4.11;88.89
79453;BME280;68899;52.116;5.404;2024-03-06T07:22:19;102210.69;;;4.15;88.93
79453;BME280;68899;52.116;5.404;2024-03-06T07:24:46;102208.06;;;4.16;88.66
79453;BME280;68899;52.116;5.404;2024-03-06T07:27:13;102212.41;;;4.16;88.89
79453;BME280;68899;52.116;5.404;2024-03-06T07:29:39;102210.66;;;4.16;89.30
79453;BME280;68899;52.116;5.404;2024-03-06T07:32:06;102208.94;;;4.18;88.89
79453;BME280;68899;52.116;5.404;2024-03-06T07:34:33;102202.88;;;4.18;89.18
79453;BME280;68899;52.116;5.404;2024-03-06T07:37:00;102219.28;;;4.23;89.63
79453;BME280;68899;52.116;5.404;2024-03-06T07:39:30;102215.75;;;4.25;89.39
79453;BME280;68899;52.116;5.404;2024-03-06T07:41:57;102225.31;;;4.25;89.28
79453;BME280;68899;52.116;5.404;2024-03-06T07:44:24;102231.34;;;4.30;89.56
79453;BME280;68899;52.116;5.404;2024-03-06T07:46:51;102226.09;;;4.32;89.69
79453;BME280;68899;52.116;5.404;2024-03-06T07:49:20;102226.06;;;4.33;89.59
79453;BME280;68899;52.116;5.404;2024-03-06T07:51:48;102220.81;;;4.38;89.66
79453;BME280;68899;52.116;5.404;2024-03-06T07:54:14;102227.69;;;4.42;89.98
79453;BME280;68899;52.116;5.404;2024-03-06T07:56:41;102229.38;;;4.46;89.84
79453;BME280;68899;52.116;5.404;2024-03-06T07:59:08;102239.75;;;4.49;89.93
79453;BME280;68899;52.116;5.404;2024-03-06T08:01:38;102239.84;;;4.43;89.60
79453;BME280;68899;52.116;5.404;2024-03-06T08:04:04;102247.72;;;4.40;90.37
79453;BME280;68899;52.116;5.404;2024-03-06T08:06:31;102259.00;;;4.40;90.04
79453;BME280;68899;52.116;5.404;2024-03-06T08:08:59;102252.91;;;4.40;90.34
79453;BME280;68899;52.116;5.404;2024-03-06T08:11:28;102252.00;;;4.42;90.48
79453;BME280;68899;52.116;5.404;2024-03-06T08:13:59;102253.63;;;4.51;91.00
79453;BME280;68899;52.116;5.404;2024-03-06T08:16:25;102251.81;;;4.58;91.12
79453;BME280;68899;52.116;5.404;2024-03-06T08:18:52;102251.72;;;4.64;90.86
79453;BME280;68899;52.116;5.404;2024-03-06T08:21:18;102250.78;;;4.69;91.15
79453;BME280;68899;52.116;5.404;2024-03-06T08:23:46;102258.47;;;4.77;91.21
79453;BME280;68899;52.116;5.404;2024-03-06T08:26:13;102263.59;;;4.83;91.57
79453;BME280;68899;52.116;5.404;2024-03-06T08:28:40;102261.75;;;4.91;91.45
79453;BME280;68899;52.116;5.404;2024-03-06T08:31:07;102268.66;;;4.95;91.63
79453;BME280;68899;52.116;5.404;2024-03-06T08:33:34;102270.34;;;4.98;91.48
79453;BME280;68899;52.116;5.404;2024-03-06T08:36:01;102279.94;;;4.94;91.29
79453;BME280;68899;52.116;5.404;2024-03-06T08:38:28;102280.78;;;4.95;91.66
79453;BME280;68899;52.116;5.404;2024-03-06T08:40:55;102291.16;;;4.99;91.59
79453;BME280;68899;52.116;5.404;2024-03-06T08:43:21;102283.31;;;5.01;91.95
79453;BME280;68899;52.116;5.404;2024-03-06T08:45:48;102295.44;;;5.03;92.30
79453;BME280;68899;52.116;5.404;2024-03-06T08:48:15;102299.72;;;5.09;92.25
79453;BME280;68899;52.116;5.404;2024-03-06T08:50:41;102297.91;;;5.14;92.76
79453;BME280;68899;52.116;5.404;2024-03-06T08:53:08;102309.13;;;5.19;92.17
79453;BME280;68899;52.116;5.404;2024-03-06T08:55:36;102302.16;;;5.21;92.31
79453;BME280;68899;52.116;5.404;2024-03-06T08:58:02;102304.66;;;5.26;92.43
79453;BME280;68899;52.116;5.404;2024-03-06T09:00:29;102307.22;;;5.29;92.28
79453;BME280;68899;52.116;5.404;2024-03-06T09:02:55;102313.25;;;5.32;92.31
79453;BME280;68899;52.116;5.404;2024-03-06T09:05:22;102311.50;;;5.33;92.70
79453;BME280;68899;52.116;5.404;2024-03-06T09:07:49;102317.50;;;5.39;92.79
79453;BME280;68899;52.116;5.404;2024-03-06T09:10:15;102320.88;;;5.45;92.90
79453;BME280;68899;52.116;5.404;2024-03-06T09:12:42;102316.44;;;5.51;92.70
79453;BME280;68899;52.116;5.404;2024-03-06T09:15:09;102322.44;;;5.55;93.20
79453;BME280;68899;52.116;5.404;2024-03-06T09:17:36;102327.59;;;5.59;93.23
79453;BME280;68899;52.116;5.404;2024-03-06T09:20:04;102328.38;;;5.66;93.32
79453;BME280;68899;52.116;5.404;2024-03-06T09:22:41;102329.13;;;5.71;93.16
79453;BME280;68899;52.116;5.404;2024-03-06T09:25:09;102331.72;;;5.74;93.47
79453;BME280;68899;52.116;5.404;2024-03-06T09:27:35;102332.53;;;5.76;93.21
79453;BME280;68899;52.116;5.404;2024-03-06T09:30:02;102341.13;;;5.83;93.43
79453;BME280;68899;52.116;5.404;2024-03-06T09:32:30;102345.38;;;5.87;93.10
79453;BME280;68899;52.116;5.404;2024-03-06T09:34:58;102345.31;;;5.93;93.19
79453;BME280;68899;52.116;5.404;2024-03-06T09:37:25;102352.28;;;5.94;93.09
79453;BME280;68899;52.116;5.404;2024-03-06T09:39:51;102356.56;;;5.97;93.28
79453;BME280;68899;52.116;5.404;2024-03-06T09:42:18;102360.94;;;5.96;93.57
79453;BME280;68899;52.116;5.404;2024-03-06T09:44:45;102359.19;;;5.97;93.37
79453;BME280;68899;52.116;5.404;2024-03-06T09:47:13;102367.03;;;5.95;93.24
79453;BME280;68899;52.116;5.404;2024-03-06T09:49:46;102363.47;;;5.99;93.41
79453;BME280;68899;52.116;5.404;2024-03-06T09:52:13;102366.09;;;5.99;93.27
79453;BME280;68899;52.116;5.404;2024-03-06T09:54:40;102360.78;;;6.04;93.64
79453;BME280;68899;52.116;5.404;2024-03-06T09:57:09;102367.59;;;6.12;93.49
79453;BME280;68899;52.116;5.404;2024-03-06T09:59:35;102374.56;;;6.12;93.31
79453;BME280;68899;52.116;5.404;2024-03-06T10:02:11;102375.31;;;6.20;93.57
79453;BME280;68899;52.116;5.404;2024-03-06T10:04:44;102376.78;;;6.33;92.98
79453;BME280;68899;52.116;5.404;2024-03-06T10:07:13;102382.81;;;6.37;93.23
79453;BME280;68899;52.116;5.404;2024-03-06T10:09:40;102387.16;;;6.38;93.01
79453;BME280;68899;52.116;5.404;2024-03-06T10:12:06;102383.66;;;6.39;93.09
79453;BME280;68899;52.116;5.404;2024-03-06T10:14:33;102384.34;;;6.47;93.11
79453;BME280;68899;52.116;5.404;2024-03-06T10:17:00;102391.97;;;6.58;93.07
79453;BME280;68899;52.116;5.404;2024-03-06T10:19:29;102391.09;;;6.59;93.00
79453;BME280;68899;52.116;5.404;2024-03-06T10:21:56;102387.72;;;6.54;92.64
79453;BME280;68899;52.116;5.404;2024-03-06T10:24:28;102392.09;;;6.53;92.78
79453;BME280;68899;52.116;5.404;2024-03-06T10:26:56;102386.00;;;6.51;92.50
79453;BME280;68899;52.116;5.404;2024-03-06T10:29:26;102389.47;;;6.53;92.44
79453;BME280;68899;52.116;5.404;2024-03-06T10:31:57;102390.25;;;6.57;92.51
79453;BME280;68899;52.116;5.404;2024-03-06T10:34:25;102394.50;;;6.62;92.37
79453;BME280;68899;52.116;5.404;2024-03-06T10:36:57;102397.06;;;6.65;92.54
79453;BME280;68899;52.116;5.404;2024-03-06T10:39:25;102400.38;;;6.73;92.39
79453;BME280;68899;52.116;5.404;2024-03-06T10:41:53;102409.00;;;6.78;92.56
79453;BME280;68899;52.116;5.404;2024-03-06T10:44:26;102406.47;;;6.74;92.58
79453;BME280;68899;52.116;5.404;2024-03-06T10:47:05;102397.84;;;6.70;92.11
79453;BME280;68899;52.116;5.404;2024-03-06T10:49:32;102405.59;;;6.73;92.29
79453;BME280;68899;52.116;5.404;2024-03-06T10:52:02;102404.31;;;6.93;91.94
79453;BME280;68899;52.116;5.404;2024-03-06T10:54:31;102408.94;;;7.22;92.23
79453;BME280;68899;52.116;5.404;2024-03-06T10:56:59;102405.00;;;7.41;91.91
79453;BME280;68899;52.116;5.404;2024-03-06T10:59:27;102406.88;;;7.34;91.87
79453;BME280;68899;52.116;5.404;2024-03-06T11:01:58;102407.28;;;7.18;91.52
79453;BME280;68899;52.116;5.404;2024-03-06T11:04:32;102413.53;;;7.11;91.45
79453;BME280;68899;52.116;5.404;2024-03-06T11:07:02;102408.28;;;7.11;91.43
79453;BME280;68899;52.116;5.404;2024-03-06T11:09:36;102407.31;;;7.16;91.03
79453;BME280;68899;52.116;5.404;2024-03-06T11:12:03;102414.88;;;7.28;91.29
79453;BME280;68899;52.116;5.404;2024-03-06T11:14:36;102417.19;;;7.42;91.49
79453;BME280;68899;52.116;5.404;2024-03-06T11:17:04;102414.41;;;7.50;91.35
79453;BME280;68899;52.116;5.404;2024-03-06T11:20:07;102423.84;;;7.57;90.89
79453;BME280;68899;52.116;5.404;2024-03-06T11:28:17;102417.97;;;7.46;90.97
79453;BME280;68899;52.116;5.404;2024-03-06T11:30:45;102413.59;;;7.46;90.84
79453;BME280;68899;52.116;5.404;2024-03-06T11:33:16;102420.50;;;7.50;90.59
79453;BME280;68899;52.116;5.404;2024-03-06T11:38:59;102426.34;;;7.96;90.24
79453;BME280;68899;52.116;5.404;2024-03-06T11:44:02;102431.03;;;8.18;89.74
79453;BME280;68899;52.116;5.404;2024-03-06T11:49:22;102429.69;;;8.02;89.65
79453;BME280;68899;52.116;5.404;2024-03-06T11:51:52;102427.75;;;8.10;89.28
79453;BME280;68899;52.116;5.404;2024-03-06T11:54:19;102428.22;;;8.25;88.87
79453;BME280;68899;52.116;5.404;2024-03-06T11:56:51;102429.81;;;8.30;89.14
79453;BME280;68899;52.116;5.404;2024-03-06T11:59:46;102434.00;;;8.39;89.63
79453;BME280;68899;52.116;5.404;2024-03-06T12:02:15;102424.22;;;8.45;89.45
79453;BME280;68899;52.116;5.404;2024-03-06T12:04:43;102435.47;;;8.49;89.17
79453;BME280;68899;52.116;5.404;2024-03-06T12:07:10;102434.75;;;8.44;89.24
79453;BME280;68899;52.116;5.404;2024-03-06T12:09:38;102432.97;;;8.44;88.64
79453;BME280;68899;52.116;5.404;2024-03-06T12:12:09;102427.59;;;8.49;88.24
79453;BME280;68899;52.116;5.404;2024-03-06T12:14:37;102427.44;;;8.55;88.60
79453;BME280;68899;52.116;5.404;2024-03-06T12:17:12;102435.16;;;8.60;88.11
79453;BME280;68899;52.116;5.404;2024-03-06T12:19:42;102431.66;;;8.61;87.04
79453;BME280;68899;52.116;5.404;2024-03-06T12:22:10;102426.44;;;8.59;87.27
79453;BME280;68899;52.116;5.404;2024-03-06T12:24:37;102434.28;;;8.61;87.73
79453;BME280;68899;52.116;5.404;2024-03-06T12:27:05;102429.69;;;8.67;87.57
79453;BME280;68899;52.116;5.404;2024-03-06T12:29:34;102431.19;;;8.76;87.57
79453;BME280;68899;52.116;5.404;2024-03-06T12:32:01;102427.66;;;8.78;87.24
79453;BME280;68899;52.116;5.404;2024-03-06T12:34:29;102429.16;;;8.86;87.13
79453;BME280;68899;52.116;5.404;2024-03-06T12:37:07;102426.47;;;8.89;86.71
79453;BME280;68899;52.116;5.404;2024-03-06T12:39:35;102435.97;;;8.93;86.44
79453;BME280;68899;52.116;5.404;2024-03-06T12:42:06;102429.78;;;8.95;85.87
79453;BME280;68899;52.116;5.404;2024-03-06T12:44:33;102431.28;;;9.04;85.19
79453;BME280;68899;52.116;5.404;2024-03-06T12:46:59;102432.94;;;9.06;84.72
79453;BME280;68899;52.116;5.404;2024-03-06T12:49:27;102424.16;;;9.07;84.61
79453;BME280;68899;52.116;5.404;2024-03-06T12:51:55;102431.19;;;9.07;84.13
79453;BME280;68899;52.116;5.404;2024-03-06T12:54:21;102425.03;;;9.08;84.31
79453;BME280;68899;52.116;5.404;2024-03-06T12:56:48;102424.91;;;9.11;84.10
79453;BME280;68899;52.116;5.404;2024-03-06T12:59:14;102416.91;;;9.16;83.30
79453;BME280;68899;52.116;5.404;2024-03-06T13:01:41;102424.63;;;9.20;83.01
79453;BME280;68899;52.116;5.404;2024-03-06T13:04:08;102415.91;;;9.20;82.62
79453;BME280;68899;52.116;5.404;2024-03-06T13:06:39;102420.22;;;9.22;82.39
79453;BME280;68899;52.116;5.404;2024-03-06T13:09:09;102416.53;;;9.28;81.74
79453;BME280;68899;52.116;5.404;2024-03-06T13:11:36;102416.47;;;9.31;82.18
79453;BME280;68899;52.116;5.404;2024-03-06T13:14:03;102422.47;;;9.34;81.74
79453;BME280;68899;52.116;5.404;2024-03-06T13:16:29;102409.19;;;9.39;80.74
79453;BME280;68899;52.116;5.404;2024-03-06T13:18:56;102420.69;;;9.35;81.15
79453;BME280;68899;52.116;5.404;2024-03-06T13:21:23;102416.59;;;9.26;81.24
79453;BME280;68899;52.116;5.404;2024-03-06T13:23:50;102420.22;;;9.22;81.45